sensor_id;sensor_type;location;lat;lon;timestamp;P1;durP1;ratioP1;P2;durP2;ratioP2
6537;SDS011;3302;52.508;13.454;2023-07-20T00:01:13;3.60;;;2.60;;
6537;SDS011;3302;52.508;13.454;2023-07-20T00:03:39;4.70;;;3.07;;
6537;SDS011;3302;52.508;13.454;2023-07-20T00:06:05;5.10;;;3.00;;
6537;SDS011;3302;52.508;13.454;2023-07-20T00:08:31;3.23;;;2.97;;
6537;SDS011;3302;52.508;13.454;2023-07-20T00:10:57;3.43;;;2.90;;
6537;SDS011;3302;52.508;13.454;2023-07-20T00:13:23;4.83;;;3.20;;
6537;SDS011;3302;52.508;13.454;2023-07-20T00:15:49;4.37;;;2.90;;
6537;SDS011;3302;52.508;13.454;2023-07-20T00:18:16;4.27;;;3.23;;
6537;SDS011;3302;52.508;13.454;2023-07-20T00:20:42;4.20;;;3.10;;
6537;SDS011;3302;52.508;13.454;2023-07-20T00:23:07;5.07;;;2.90;;
6537;SDS011;3302;52.508;13.454;2023-07-20T00:25:34;3.90;;;3.50;;
6537;SDS011;3302;52.508;13.454;2023-07-20T00:28:00;3.73;;;3.20;;
6537;SDS011;3302;52.508;13.454;2023-07-20T00:30:26;3.53;;;3.10;;
6537;SDS011;3302;52.508;13.454;2023-07-20T00:32:52;3.37;;;2.80;;
6537;SDS011;3302;52.508;13.454;2023-07-20T00:35:18;4.70;;;2.80;;
6537;SDS011;3302;52.508;13.454;2023-07-20T00:37:44;4.77;;;2.90;;
6537;SDS011;3302;52.508;13.454;2023-07-20T00:40:10;5.60;;;2.87;;
6537;SDS011;3302;52.508;13.454;2023-07-20T00:42:35;3.33;;;2.87;;
6537;SDS011;3302;52.508;13.454;2023-07-20T00:45:01;3.20;;;2.90;;
6537;SDS011;3302;52.508;13.454;2023-07-20T00:47:27;4.47;;;3.37;;
6537;SDS011;3302;52.508;13.454;2023-07-20T00:49:53;3.97;;;3.43;;
6537;SDS011;3302;52.508;13.454;2023-07-20T00:52:22;3.20;;;2.83;;
6537;SDS011;3302;52.508;13.454;2023-07-20T00:54:50;5.53;;;3.70;;
6537;SDS011;3302;52.508;13.454;2023-07-20T00:57:17;4.17;;;3.50;;
6537;SDS011;3302;52.508;13.454;2023-07-20T00:59:44;3.63;;;3.27;;
6537;SDS011;3302;52.508;13.454;2023-07-20T01:02:10;5.17;;;3.40;;
6537;SDS011;3302;52.508;13.454;2023-07-20T01:04:36;4.20;;;3.80;;
6537;SDS011;3302;52.508;13.454;2023-07-20T01:07:03;6.73;;;3.90;;
6537;SDS011;3302;52.508;13.454;2023-07-20T01:09:48;3.90;;;3.03;;
6537;SDS011;3302;52.508;13.454;2023-07-20T01:12:26;5.10;;;3.40;;
6537;SDS011;3302;52.508;13.454;2023-07-20T01:14:58;3.33;;;3.03;;
6537;SDS011;3302;52.508;13.454;2023-07-20T01:17:24;4.07;;;3.17;;
6537;SDS011;3302;52.508;13.454;2023-07-20T01:19:50;4.63;;;3.40;;
6537;SDS011;3302;52.508;13.454;2023-07-20T01:33:56;4.07;;;3.47;;
6537;SDS011;3302;52.508;13.454;2023-07-20T01:36:23;3.63;;;3.27;;
6537;SDS011;3302;52.508;13.454;2023-07-20T01:38:51;4.17;;;3.73;;
6537;SDS011;3302;52.508;13.454;2023-07-20T01:41:18;3.83;;;3.43;;
6537;SDS011;3302;52.508;13.454;2023-07-20T01:43:44;5.33;;;4.10;;
6537;SDS011;3302;52.508;13.454;2023-07-20T01:46:11;4.63;;;3.90;;
6537;SDS011;3302;52.508;13.454;2023-07-20T01:48:36;4.60;;;4.20;;
6537;SDS011;3302;52.508;13.454;2023-07-20T01:51:02;6.43;;;3.93;;
6537;SDS011;3302;52.508;13.454;2023-07-20T01:53:28;4.13;;;3.73;;
6537;SDS011;3302;52.508;13.454;2023-07-20T01:55:54;4.37;;;3.97;;
6537;SDS011;3302;52.508;13.454;2023-07-20T01:58:20;4.33;;;3.90;;
6537;SDS011;3302;52.508;13.454;2023-07-20T02:00:46;3.80;;;3.50;;
6537;SDS011;3302;52.508;13.454;2023-07-20T02:03:11;5.23;;;4.13;;
6537;SDS011;3302;52.508;13.454;2023-07-20T02:05:37;4.07;;;3.73;;
6537;SDS011;3302;52.508;13.454;2023-07-20T02:08:04;4.27;;;3.80;;
6537;SDS011;3302;52.508;13.454;2023-07-20T02:10:30;4.10;;;3.73;;
6537;SDS011;3302;52.508;13.454;2023-07-20T02:12:55;4.10;;;3.70;;
6537;SDS011;3302;52.508;13.454;2023-07-20T02:15:21;3.60;;;3.30;;
6537;SDS011;3302;52.508;13.454;2023-07-20T02:17:47;5.50;;;3.50;;
6537;SDS011;3302;52.508;13.454;2023-07-20T02:20:13;4.07;;;3.40;;
6537;SDS011;3302;52.508;13.454;2023-07-20T02:22:39;4.33;;;3.57;;
6537;SDS011;3302;52.508;13.454;2023-07-20T02:25:05;5.07;;;3.90;;
6537;SDS011;3302;52.508;13.454;2023-07-20T02:27:32;4.30;;;3.83;;
6537;SDS011;3302;52.508;13.454;2023-07-20T02:29:59;4.40;;;3.63;;
6537;SDS011;3302;52.508;13.454;2023-07-20T02:32:25;4.13;;;3.60;;
6537;SDS011;3302;52.508;13.454;2023-07-20T02:34:51;4.27;;;3.87;;
6537;SDS011;3302;52.508;13.454;2023-07-20T02:37:17;5.40;;;4.90;;
6537;SDS011;3302;52.508;13.454;2023-07-20T02:39:43;5.70;;;4.60;;
6537;SDS011;3302;52.508;13.454;2023-07-20T02:42:09;5.90;;;5.07;;
6537;SDS011;3302;52.508;13.454;2023-07-20T02:44:34;5.83;;;5.33;;
6537;SDS011;3302;52.508;13.454;2023-07-20T02:47:00;5.40;;;4.90;;
6537;SDS011;3302;52.508;13.454;2023-07-20T02:49:26;6.30;;;5.17;;
6537;SDS011;3302;52.508;13.454;2023-07-20T02:51:52;7.80;;;5.17;;
6537;SDS011;3302;52.508;13.454;2023-07-20T02:54:18;7.00;;;6.30;;
6537;SDS011;3302;52.508;13.454;2023-07-20T02:56:44;6.50;;;5.67;;
6537;SDS011;3302;52.508;13.454;2023-07-20T02:59:10;7.30;;;6.63;;
6537;SDS011;3302;52.508;13.454;2023-07-20T03:01:36;6.63;;;6.03;;
6537;SDS011;3302;52.508;13.454;2023-07-20T03:04:01;6.87;;;6.27;;
6537;SDS011;3302;52.508;13.454;2023-07-20T03:06:27;7.63;;;6.90;;
6537;SDS011;3302;52.508;13.454;2023-07-20T03:08:53;7.90;;;6.47;;
6537;SDS011;3302;52.508;13.454;2023-07-20T03:11:19;7.83;;;7.03;;
6537;SDS011;3302;52.508;13.454;2023-07-20T03:13:46;7.33;;;6.63;;
6537;SDS011;3302;52.508;13.454;2023-07-20T03:16:14;7.43;;;6.73;;
6537;SDS011;3302;52.508;13.454;2023-07-20T03:18:41;7.73;;;7.10;;
6537;SDS011;3302;52.508;13.454;2023-07-20T03:21:07;8.17;;;6.80;;
6537;SDS011;3302;52.508;13.454;2023-07-20T03:23:36;7.37;;;6.67;;
6537;SDS011;3302;52.508;13.454;2023-07-20T03:26:02;6.87;;;6.20;;
6537;SDS011;3302;52.508;13.454;2023-07-20T03:28:28;7.67;;;6.50;;
6537;SDS011;3302;52.508;13.454;2023-07-20T03:30:54;7.57;;;6.43;;
6537;SDS011;3302;52.508;13.454;2023-07-20T03:33:27;7.90;;;7.10;;
6537;SDS011;3302;52.508;13.454;2023-07-20T03:35:54;8.00;;;7.20;;
6537;SDS011;3302;52.508;13.454;2023-07-20T03:38:21;7.67;;;6.97;;
6537;SDS011;3302;52.508;13.454;2023-07-20T03:43:24;9.93;;;7.23;;
6537;SDS011;3302;52.508;13.454;2023-07-20T03:45:51;7.00;;;6.40;;
6537;SDS011;3302;52.508;13.454;2023-07-20T03:48:18;7.80;;;6.13;;
6537;SDS011;3302;52.508;13.454;2023-07-20T03:50:45;7.13;;;6.53;;
6537;SDS011;3302;52.508;13.454;2023-07-20T03:53:12;8.43;;;6.97;;
6537;SDS011;3302;52.508;13.454;2023-07-20T03:55:38;7.63;;;6.93;;
6537;SDS011;3302;52.508;13.454;2023-07-20T03:58:06;7.30;;;6.57;;
6537;SDS011;3302;52.508;13.454;2023-07-20T04:00:32;9.13;;;7.27;;
6537;SDS011;3302;52.508;13.454;2023-07-20T04:02:58;8.17;;;7.37;;
6537;SDS011;3302;52.508;13.454;2023-07-20T04:05:24;8.07;;;6.33;;
6537;SDS011;3302;52.508;13.454;2023-07-20T04:07:51;7.03;;;6.33;;
6537;SDS011;3302;52.508;13.454;2023-07-20T04:10:17;8.10;;;6.47;;
6537;SDS011;3302;52.508;13.454;2023-07-20T04:12:46;6.80;;;6.17;;
6537;SDS011;3302;52.508;13.454;2023-07-20T04:15:14;6.43;;;5.83;;
6537;SDS011;3302;52.508;13.454;2023-07-20T04:17:40;7.63;;;5.67;;
6537;SDS011;3302;52.508;13.454;2023-07-20T04:20:06;6.57;;;5.93;;
6537;SDS011;3302;52.508;13.454;2023-07-20T04:22:33;7.27;;;5.80;;
6537;SDS011;3302;52.508;13.454;2023-07-20T04:24:59;6.30;;;5.70;;
6537;SDS011;3302;52.508;13.454;2023-07-20T04:27:25;7.37;;;6.63;;
6537;SDS011;3302;52.508;13.454;2023-07-20T04:29:51;6.73;;;6.10;;
6537;SDS011;3302;52.508;13.454;2023-07-20T04:32:17;7.07;;;6.37;;
6537;SDS011;3302;52.508;13.454;2023-07-20T04:34:43;8.53;;;6.07;;
6537;SDS011;3302;52.508;13.454;2023-07-20T04:37:09;7.43;;;6.30;;
6537;SDS011;3302;52.508;13.454;2023-07-20T04:39:34;7.30;;;5.90;;
6537;SDS011;3302;52.508;13.454;2023-07-20T04:42:00;7.53;;;6.00;;
6537;SDS011;3302;52.508;13.454;2023-07-20T04:44:26;6.97;;;5.77;;
6537;SDS011;3302;52.508;13.454;2023-07-20T04:46:52;6.40;;;5.80;;
6537;SDS011;3302;52.508;13.454;2023-07-20T04:49:17;6.80;;;6.20;;
6537;SDS011;3302;52.508;13.454;2023-07-20T04:51:43;6.17;;;5.67;;
6537;SDS011;3302;52.508;13.454;2023-07-20T04:54:10;6.17;;;5.53;;
6537;SDS011;3302;52.508;13.454;2023-07-20T04:56:36;6.70;;;6.10;;
6537;SDS011;3302;52.508;13.454;2023-07-20T04:59:01;6.80;;;6.07;;
6537;SDS011;3302;52.508;13.454;2023-07-20T05:01:27;6.73;;;6.13;;
6537;SDS011;3302;52.508;13.454;2023-07-20T05:03:53;6.00;;;5.40;;
6537;SDS011;3302;52.508;13.454;2023-07-20T05:06:19;6.83;;;5.80;;
6537;SDS011;3302;52.508;13.454;2023-07-20T05:08:44;7.53;;;6.87;;
6537;SDS011;3302;52.508;13.454;2023-07-20T05:11:11;8.70;;;6.00;;
6537;SDS011;3302;52.508;13.454;2023-07-20T05:13:37;6.33;;;5.73;;
6537;SDS011;3302;52.508;13.454;2023-07-20T05:16:03;6.00;;;5.40;;
6537;SDS011;3302;52.508;13.454;2023-07-20T05:18:29;6.10;;;5.07;;
6537;SDS011;3302;52.508;13.454;2023-07-20T05:20:55;5.57;;;4.97;;
6537;SDS011;3302;52.508;13.454;2023-07-20T05:23:21;5.20;;;4.43;;
6537;SDS011;3302;52.508;13.454;2023-07-20T05:25:53;4.57;;;4.17;;
6537;SDS011;3302;52.508;13.454;2023-07-20T05:28:20;4.87;;;4.37;;
6537;SDS011;3302;52.508;13.454;2023-07-20T05:30:46;4.60;;;4.20;;
6537;SDS011;3302;52.508;13.454;2023-07-20T05:33:12;4.60;;;4.20;;
6537;SDS011;3302;52.508;13.454;2023-07-20T05:35:37;4.80;;;4.03;;
6537;SDS011;3302;52.508;13.454;2023-07-20T05:38:03;4.27;;;3.93;;
6537;SDS011;3302;52.508;13.454;2023-07-20T05:40:30;4.43;;;4.03;;
6537;SDS011;3302;52.508;13.454;2023-07-20T05:42:56;4.70;;;4.30;;
6537;SDS011;3302;52.508;13.454;2023-07-20T05:45:22;4.07;;;3.70;;
6537;SDS011;3302;52.508;13.454;2023-07-20T05:47:48;5.27;;;4.77;;
6537;SDS011;3302;52.508;13.454;2023-07-20T05:50:14;4.23;;;3.83;;
6537;SDS011;3302;52.508;13.454;2023-07-20T05:52:40;4.10;;;3.73;;
6537;SDS011;3302;52.508;13.454;2023-07-20T05:55:06;4.70;;;4.20;;
6537;SDS011;3302;52.508;13.454;2023-07-20T05:57:32;5.60;;;3.90;;
6537;SDS011;3302;52.508;13.454;2023-07-20T05:59:58;4.60;;;3.97;;
6537;SDS011;3302;52.508;13.454;2023-07-20T06:02:24;4.47;;;4.00;;
6537;SDS011;3302;52.508;13.454;2023-07-20T06:04:50;4.10;;;3.80;;
6537;SDS011;3302;52.508;13.454;2023-07-20T06:07:16;4.33;;;3.90;;
6537;SDS011;3302;52.508;13.454;2023-07-20T06:09:42;4.53;;;4.13;;
6537;SDS011;3302;52.508;13.454;2023-07-20T06:12:08;6.37;;;4.47;;
6537;SDS011;3302;52.508;13.454;2023-07-20T06:14:34;5.43;;;4.73;;
6537;SDS011;3302;52.508;13.454;2023-07-20T06:17:00;4.83;;;4.43;;
6537;SDS011;3302;52.508;13.454;2023-07-20T06:19:26;5.10;;;4.60;;
6537;SDS011;3302;52.508;13.454;2023-07-20T06:21:52;5.00;;;4.60;;
6537;SDS011;3302;52.508;13.454;2023-07-20T06:24:18;4.93;;;4.43;;
6537;SDS011;3302;52.508;13.454;2023-07-20T06:26:43;5.23;;;4.73;;
6537;SDS011;3302;52.508;13.454;2023-07-20T06:29:09;4.67;;;4.27;;
6537;SDS011;3302;52.508;13.454;2023-07-20T06:31:35;4.60;;;4.20;;
6537;SDS011;3302;52.508;13.454;2023-07-20T06:34:01;4.83;;;4.20;;
6537;SDS011;3302;52.508;13.454;2023-07-20T06:36:28;5.80;;;3.87;;
6537;SDS011;3302;52.508;13.454;2023-07-20T06:38:54;4.07;;;3.60;;
6537;SDS011;3302;52.508;13.454;2023-07-20T06:41:23;5.20;;;3.87;;
6537;SDS011;3302;52.508;13.454;2023-07-20T06:43:49;4.17;;;3.77;;
6537;SDS011;3302;52.508;13.454;2023-07-20T06:46:15;4.03;;;3.63;;
6537;SDS011;3302;52.508;13.454;2023-07-20T06:48:41;3.30;;;3.00;;
6537;SDS011;3302;52.508;13.454;2023-07-20T06:51:07;4.73;;;3.33;;
6537;SDS011;3302;52.508;13.454;2023-07-20T06:53:33;5.07;;;2.90;;
6537;SDS011;3302;52.508;13.454;2023-07-20T06:55:58;3.47;;;2.40;;
6537;SDS011;3302;52.508;13.454;2023-07-20T06:58:24;2.53;;;2.33;;
6537;SDS011;3302;52.508;13.454;2023-07-20T07:00:51;2.47;;;2.27;;
6537;SDS011;3302;52.508;13.454;2023-07-20T07:03:17;3.20;;;2.63;;
6537;SDS011;3302;52.508;13.454;2023-07-20T07:05:43;2.60;;;1.83;;
6537;SDS011;3302;52.508;13.454;2023-07-20T07:08:10;3.57;;;2.23;;
6537;SDS011;3302;52.508;13.454;2023-07-20T07:10:36;3.60;;;2.17;;
6537;SDS011;3302;52.508;13.454;2023-07-20T07:13:02;3.47;;;2.30;;
6537;SDS011;3302;52.508;13.454;2023-07-20T07:15:29;3.23;;;2.03;;
6537;SDS011;3302;52.508;13.454;2023-07-20T07:17:54;2.67;;;2.10;;
6537;SDS011;3302;52.508;13.454;2023-07-20T07:20:21;3.40;;;2.10;;
6537;SDS011;3302;52.508;13.454;2023-07-20T07:22:47;3.37;;;2.10;;
6537;SDS011;3302;52.508;13.454;2023-07-20T07:25:13;4.30;;;2.50;;
6537;SDS011;3302;52.508;13.454;2023-07-20T07:27:39;4.40;;;2.00;;
6537;SDS011;3302;52.508;13.454;2023-07-20T07:30:05;3.47;;;1.67;;
6537;SDS011;3302;52.508;13.454;2023-07-20T07:32:31;1.90;;;1.60;;
6537;SDS011;3302;52.508;13.454;2023-07-20T07:34:57;2.47;;;1.63;;
6537;SDS011;3302;52.508;13.454;2023-07-20T07:37:26;1.93;;;1.50;;
6537;SDS011;3302;52.508;13.454;2023-07-20T07:39:52;1.93;;;1.30;;
6537;SDS011;3302;52.508;13.454;2023-07-20T07:42:17;3.03;;;1.50;;
6537;SDS011;3302;52.508;13.454;2023-07-20T07:44:44;1.43;;;1.30;;
6537;SDS011;3302;52.508;13.454;2023-07-20T07:47:10;2.33;;;1.60;;
6537;SDS011;3302;52.508;13.454;2023-07-20T07:49:36;1.77;;;1.30;;
6537;SDS011;3302;52.508;13.454;2023-07-20T07:52:02;2.33;;;1.47;;
6537;SDS011;3302;52.508;13.454;2023-07-20T07:54:28;2.03;;;1.30;;
6537;SDS011;3302;52.508;13.454;2023-07-20T07:56:54;3.30;;;1.30;;
6537;SDS011;3302;52.508;13.454;2023-07-20T07:59:20;2.03;;;1.27;;
6537;SDS011;3302;52.508;13.454;2023-07-20T08:01:46;1.33;;;1.23;;
6537;SDS011;3302;52.508;13.454;2023-07-20T08:04:12;1.60;;;1.20;;
6537;SDS011;3302;52.508;13.454;2023-07-20T08:06:38;1.73;;;1.30;;
6537;SDS011;3302;52.508;13.454;2023-07-20T08:09:04;2.00;;;1.80;;
6537;SDS011;3302;52.508;13.454;2023-07-20T08:11:30;1.77;;;1.37;;
6537;SDS011;3302;52.508;13.454;2023-07-20T08:13:59;4.07;;;1.43;;
6537;SDS011;3302;52.508;13.454;2023-07-20T08:16:25;2.67;;;1.60;;
6537;SDS011;3302;52.508;13.454;2023-07-20T08:18:51;2.13;;;1.53;;
6537;SDS011;3302;52.508;13.454;2023-07-20T08:21:17;2.07;;;1.30;;
6537;SDS011;3302;52.508;13.454;2023-07-20T08:23:43;5.13;;;1.10;;
6537;SDS011;3302;52.508;13.454;2023-07-20T08:26:09;2.37;;;0.90;;
6537;SDS011;3302;52.508;13.454;2023-07-20T08:28:35;1.83;;;1.10;;
6537;SDS011;3302;52.508;13.454;2023-07-20T08:31:01;2.10;;;1.10;;
6537;SDS011;3302;52.508;13.454;2023-07-20T08:33:27;1.73;;;1.10;;
6537;SDS011;3302;52.508;13.454;2023-07-20T08:35:58;1.20;;;1.10;;
6537;SDS011;3302;52.508;13.454;2023-07-20T08:38:26;1.17;;;0.97;;
6537;SDS011;3302;52.508;13.454;2023-07-20T08:40:52;1.33;;;1.13;;
6537;SDS011;3302;52.508;13.454;2023-07-20T08:43:22;1.47;;;1.10;;
6537;SDS011;3302;52.508;13.454;2023-07-20T08:45:51;2.23;;;1.10;;
6537;SDS011;3302;52.508;13.454;2023-07-20T08:48:21;2.20;;;1.20;;
6537;SDS011;3302;52.508;13.454;2023-07-20T08:50:51;2.13;;;1.13;;
6537;SDS011;3302;52.508;13.454;2023-07-20T08:53:19;1.20;;;0.93;;
6537;SDS011;3302;52.508;13.454;2023-07-20T08:55:45;1.63;;;1.20;;
6537;SDS011;3302;52.508;13.454;2023-07-20T08:58:15;1.03;;;0.93;;
6537;SDS011;3302;52.508;13.454;2023-07-20T09:00:42;1.27;;;0.90;;
6537;SDS011;3302;52.508;13.454;2023-07-20T09:03:09;2.23;;;0.90;;
6537;SDS011;3302;52.508;13.454;2023-07-20T09:05:36;1.17;;;1.07;;
6537;SDS011;3302;52.508;13.454;2023-07-20T09:08:02;3.07;;;1.10;;
6537;SDS011;3302;52.508;13.454;2023-07-20T09:10:29;1.10;;;1.00;;
6537;SDS011;3302;52.508;13.454;2023-07-20T09:12:55;1.70;;;1.20;;
6537;SDS011;3302;52.508;13.454;2023-07-20T09:15:21;1.67;;;0.93;;
6537;SDS011;3302;52.508;13.454;2023-07-20T09:17:48;2.70;;;1.10;;
6537;SDS011;3302;52.508;13.454;2023-07-20T09:20:18;1.00;;;0.90;;
6537;SDS011;3302;52.508;13.454;2023-07-20T09:22:44;0.97;;;0.90;;
6537;SDS011;3302;52.508;13.454;2023-07-20T09:25:14;1.00;;;0.83;;
6537;SDS011;3302;52.508;13.454;2023-07-20T09:27:42;1.27;;;1.17;;
6537;SDS011;3302;52.508;13.454;2023-07-20T09:30:12;2.00;;;1.20;;
6537;SDS011;3302;52.508;13.454;2023-07-20T09:32:41;4.13;;;1.70;;
6537;SDS011;3302;52.508;13.454;2023-07-20T09:35:14;1.83;;;1.30;;
6537;SDS011;3302;52.508;13.454;2023-07-20T09:37:45;1.37;;;1.00;;
6537;SDS011;3302;52.508;13.454;2023-07-20T09:40:17;1.60;;;1.10;;
6537;SDS011;3302;52.508;13.454;2023-07-20T09:42:43;1.97;;;1.53;;
6537;SDS011;3302;52.508;13.454;2023-07-20T09:45:10;1.80;;;1.10;;
6537;SDS011;3302;52.508;13.454;2023-07-20T09:47:36;1.17;;;1.03;;
6537;SDS011;3302;52.508;13.454;2023-07-20T09:50:03;1.83;;;1.00;;
6537;SDS011;3302;52.508;13.454;2023-07-20T09:52:32;0.93;;;0.83;;
6537;SDS011;3302;52.508;13.454;2023-07-20T09:55:00;1.20;;;1.00;;
6537;SDS011;3302;52.508;13.454;2023-07-20T09:57:27;1.93;;;1.00;;
6537;SDS011;3302;52.508;13.454;2023-07-20T09:59:54;1.60;;;1.20;;
6537;SDS011;3302;52.508;13.454;2023-07-20T10:02:21;2.00;;;1.00;;
6537;SDS011;3302;52.508;13.454;2023-07-20T10:04:51;2.03;;;1.20;;
6537;SDS011;3302;52.508;13.454;2023-07-20T10:07:19;1.53;;;1.20;;
6537;SDS011;3302;52.508;13.454;2023-07-20T10:09:48;1.97;;;1.50;;
6537;SDS011;3302;52.508;13.454;2023-07-20T10:12:17;2.33;;;1.40;;
6537;SDS011;3302;52.508;13.454;2023-07-20T10:14:49;1.87;;;1.13;;
6537;SDS011;3302;52.508;13.454;2023-07-20T10:17:22;1.73;;;1.40;;
6537;SDS011;3302;52.508;13.454;2023-07-20T10:19:50;2.07;;;1.40;;
6537;SDS011;3302;52.508;13.454;2023-07-20T10:22:25;1.50;;;1.30;;
6537;SDS011;3302;52.508;13.454;2023-07-20T10:24:52;2.37;;;1.87;;
6537;SDS011;3302;52.508;13.454;2023-07-20T10:27:22;3.27;;;1.77;;
6537;SDS011;3302;52.508;13.454;2023-07-20T10:29:48;1.77;;;1.40;;
6537;SDS011;3302;52.508;13.454;2023-07-20T10:32:16;1.63;;;1.33;;
6537;SDS011;3302;52.508;13.454;2023-07-20T10:34:49;3.47;;;1.37;;
6537;SDS011;3302;52.508;13.454;2023-07-20T10:43:06;2.53;;;1.10;;
6537;SDS011;3302;52.508;13.454;2023-07-20T10:45:47;1.50;;;1.20;;
6537;SDS011;3302;52.508;13.454;2023-07-20T10:48:16;2.13;;;1.47;;
6537;SDS011;3302;52.508;13.454;2023-07-20T10:51:08;3.90;;;1.93;;
6537;SDS011;3302;52.508;13.454;2023-07-20T10:53:37;4.40;;;1.40;;
6537;SDS011;3302;52.508;13.454;2023-07-20T10:56:21;1.30;;;1.20;;
6537;SDS011;3302;52.508;13.454;2023-07-20T10:58:48;2.17;;;1.30;;
6537;SDS011;3302;52.508;13.454;2023-07-20T11:01:15;1.70;;;1.50;;
6537;SDS011;3302;52.508;13.454;2023-07-20T11:03:42;2.77;;;1.80;;
6537;SDS011;3302;52.508;13.454;2023-07-20T11:06:43;2.70;;;1.97;;
6537;SDS011;3302;52.508;13.454;2023-07-20T11:09:07;2.13;;;1.70;;
6537;SDS011;3302;52.508;13.454;2023-07-20T11:11:37;1.80;;;1.30;;
6537;SDS011;3302;52.508;13.454;2023-07-20T11:14:25;2.50;;;1.30;;
6537;SDS011;3302;52.508;13.454;2023-07-20T11:16:51;1.70;;;1.20;;
6537;SDS011;3302;52.508;13.454;2023-07-20T11:21:44;1.73;;;1.30;;
6537;SDS011;3302;52.508;13.454;2023-07-20T11:24:11;3.90;;;1.83;;
6537;SDS011;3302;52.508;13.454;2023-07-20T11:26:48;2.50;;;1.53;;
6537;SDS011;3302;52.508;13.454;2023-07-20T11:29:16;2.00;;;1.37;;
6537;SDS011;3302;52.508;13.454;2023-07-20T11:31:44;3.00;;;1.20;;
6537;SDS011;3302;52.508;13.454;2023-07-20T11:34:11;5.07;;;1.80;;
6537;SDS011;3302;52.508;13.454;2023-07-20T11:36:39;1.60;;;1.50;;
6537;SDS011;3302;52.508;13.454;2023-07-20T11:39:18;1.47;;;1.20;;
6537;SDS011;3302;52.508;13.454;2023-07-20T11:41:52;2.27;;;1.30;;
6537;SDS011;3302;52.508;13.454;2023-07-20T11:44:19;3.10;;;1.37;;
6537;SDS011;3302;52.508;13.454;2023-07-20T11:47:05;2.00;;;1.40;;
6537;SDS011;3302;52.508;13.454;2023-07-20T11:49:35;1.40;;;1.10;;
6537;SDS011;3302;52.508;13.454;2023-07-20T11:52:06;2.07;;;1.20;;
6537;SDS011;3302;52.508;13.454;2023-07-20T11:54:34;1.30;;;1.00;;
6537;SDS011;3302;52.508;13.454;2023-07-20T11:57:01;1.37;;;1.20;;
6537;SDS011;3302;52.508;13.454;2023-07-20T11:59:27;1.47;;;1.20;;
6537;SDS011;3302;52.508;13.454;2023-07-20T12:01:53;2.30;;;1.30;;
6537;SDS011;3302;52.508;13.454;2023-07-20T12:04:19;2.80;;;1.20;;
6537;SDS011;3302;52.508;13.454;2023-07-20T12:06:47;1.40;;;1.10;;
6537;SDS011;3302;52.508;13.454;2023-07-20T12:09:14;2.20;;;1.30;;
6537;SDS011;3302;52.508;13.454;2023-07-20T12:11:42;2.13;;;1.40;;
6537;SDS011;3302;52.508;13.454;2023-07-20T12:14:09;1.63;;;1.10;;
6537;SDS011;3302;52.508;13.454;2023-07-20T12:16:36;1.20;;;1.10;;
6537;SDS011;3302;52.508;13.454;2023-07-20T12:19:06;1.20;;;0.93;;
6537;SDS011;3302;52.508;13.454;2023-07-20T12:21:36;1.90;;;1.10;;
6537;SDS011;3302;52.508;13.454;2023-07-20T12:24:03;0.83;;;0.80;;
6537;SDS011;3302;52.508;13.454;2023-07-20T12:26:30;1.60;;;1.10;;
6537;SDS011;3302;52.508;13.454;2023-07-20T12:28:57;1.57;;;0.90;;
6537;SDS011;3302;52.508;13.454;2023-07-20T12:31:24;3.50;;;1.07;;
6537;SDS011;3302;52.508;13.454;2023-07-20T12:33:51;2.00;;;0.90;;
6537;SDS011;3302;52.508;13.454;2023-07-20T12:36:18;1.33;;;0.80;;
6537;SDS011;3302;52.508;13.454;2023-07-20T12:38:44;2.03;;;0.90;;
6537;SDS011;3302;52.508;13.454;2023-07-20T12:41:11;1.60;;;1.10;;
6537;SDS011;3302;52.508;13.454;2023-07-20T12:43:38;1.97;;;1.00;;
6537;SDS011;3302;52.508;13.454;2023-07-20T12:46:08;2.13;;;0.97;;
6537;SDS011;3302;52.508;13.454;2023-07-20T12:48:35;3.50;;;1.87;;
6537;SDS011;3302;52.508;13.454;2023-07-20T12:51:06;2.27;;;1.20;;
6537;SDS011;3302;52.508;13.454;2023-07-20T12:53:32;2.03;;;1.33;;
6537;SDS011;3302;52.508;13.454;2023-07-20T12:55:59;1.83;;;1.30;;
6537;SDS011;3302;52.508;13.454;2023-07-20T12:58:25;4.27;;;1.33;;
6537;SDS011;3302;52.508;13.454;2023-07-20T13:00:52;2.33;;;1.40;;
6537;SDS011;3302;52.508;13.454;2023-07-20T13:03:18;2.20;;;1.20;;
6537;SDS011;3302;52.508;13.454;2023-07-20T13:05:45;1.20;;;1.03;;
6537;SDS011;3302;52.508;13.454;2023-07-20T13:08:11;1.30;;;1.13;;
6537;SDS011;3302;52.508;13.454;2023-07-20T13:10:38;8.67;;;2.83;;
6537;SDS011;3302;52.508;13.454;2023-07-20T13:13:04;2.57;;;1.40;;
6537;SDS011;3302;52.508;13.454;2023-07-20T13:15:31;2.73;;;1.40;;
6537;SDS011;3302;52.508;13.454;2023-07-20T13:17:57;6.57;;;1.40;;
6537;SDS011;3302;52.508;13.454;2023-07-20T13:20:24;1.20;;;1.10;;
6537;SDS011;3302;52.508;13.454;2023-07-20T13:22:53;1.43;;;1.00;;
6537;SDS011;3302;52.508;13.454;2023-07-20T13:25:19;1.27;;;1.17;;
6537;SDS011;3302;52.508;13.454;2023-07-20T13:27:45;1.60;;;1.23;;
6537;SDS011;3302;52.508;13.454;2023-07-20T13:30:11;1.43;;;1.10;;
6537;SDS011;3302;52.508;13.454;2023-07-20T13:32:42;2.43;;;1.40;;
6537;SDS011;3302;52.508;13.454;2023-07-20T13:35:09;2.70;;;1.30;;
6537;SDS011;3302;52.508;13.454;2023-07-20T13:37:36;1.43;;;1.20;;
6537;SDS011;3302;52.508;13.454;2023-07-20T13:40:01;1.40;;;1.03;;
6537;SDS011;3302;52.508;13.454;2023-07-20T13:42:30;2.93;;;1.00;;
6537;SDS011;3302;52.508;13.454;2023-07-20T13:44:56;1.73;;;1.00;;
6537;SDS011;3302;52.508;13.454;2023-07-20T13:47:22;1.50;;;1.13;;
6537;SDS011;3302;52.508;13.454;2023-07-20T13:49:48;1.70;;;1.43;;
6537;SDS011;3302;52.508;13.454;2023-07-20T13:52:14;0.80;;;0.80;;
6537;SDS011;3302;52.508;13.454;2023-07-20T13:54:40;1.63;;;1.00;;
6537;SDS011;3302;52.508;13.454;2023-07-20T13:57:06;2.07;;;1.00;;
6537;SDS011;3302;52.508;13.454;2023-07-20T13:59:32;1.95;;;1.05;;
6537;SDS011;3302;52.508;13.454;2023-07-20T14:01:58;1.30;;;1.10;;
6537;SDS011;3302;52.508;13.454;2023-07-20T14:04:24;1.00;;;0.90;;
6537;SDS011;3302;52.508;13.454;2023-07-20T14:06:50;2.83;;;1.50;;
6537;SDS011;3302;52.508;13.454;2023-07-20T14:09:16;1.20;;;1.10;;
6537;SDS011;3302;52.508;13.454;2023-07-20T14:11:42;2.33;;;1.30;;
6537;SDS011;3302;52.508;13.454;2023-07-20T14:14:08;1.73;;;1.10;;
6537;SDS011;3302;52.508;13.454;2023-07-20T14:16:34;1.10;;;1.00;;
6537;SDS011;3302;52.508;13.454;2023-07-20T14:19:00;1.33;;;0.90;;
6537;SDS011;3302;52.508;13.454;2023-07-20T14:21:26;1.97;;;1.20;;
6537;SDS011;3302;52.508;13.454;2023-07-20T14:23:52;2.33;;;1.30;;
6537;SDS011;3302;52.508;13.454;2023-07-20T14:26:18;2.27;;;1.30;;
6537;SDS011;3302;52.508;13.454;2023-07-20T14:28:44;1.53;;;1.20;;
6537;SDS011;3302;52.508;13.454;2023-07-20T14:31:10;1.13;;;1.00;;
6537;SDS011;3302;52.508;13.454;2023-07-20T14:33:36;2.33;;;1.40;;
6537;SDS011;3302;52.508;13.454;2023-07-20T14:36:02;1.20;;;1.00;;
6537;SDS011;3302;52.508;13.454;2023-07-20T14:38:30;2.03;;;1.10;;
6537;SDS011;3302;52.508;13.454;2023-07-20T14:40:56;1.27;;;1.10;;
6537;SDS011;3302;52.508;13.454;2023-07-20T14:43:22;1.13;;;0.90;;
6537;SDS011;3302;52.508;13.454;2023-07-20T14:45:48;2.40;;;1.17;;
6537;SDS011;3302;52.508;13.454;2023-07-20T14:48:14;2.70;;;1.10;;
6537;SDS011;3302;52.508;13.454;2023-07-20T14:50:40;1.50;;;1.20;;
6537;SDS011;3302;52.508;13.454;2023-07-20T14:53:06;1.50;;;1.40;;
6537;SDS011;3302;52.508;13.454;2023-07-20T14:55:33;2.00;;;1.20;;
6537;SDS011;3302;52.508;13.454;2023-07-20T14:57:59;1.67;;;1.03;;
6537;SDS011;3302;52.508;13.454;2023-07-20T15:00:24;3.37;;;1.37;;
6537;SDS011;3302;52.508;13.454;2023-07-20T15:02:51;1.27;;;1.00;;
6537;SDS011;3302;52.508;13.454;2023-07-20T15:05:23;1.70;;;1.23;;
6537;SDS011;3302;52.508;13.454;2023-07-20T15:07:50;2.10;;;1.40;;
6537;SDS011;3302;52.508;13.454;2023-07-20T15:10:16;1.80;;;1.13;;
6537;SDS011;3302;52.508;13.454;2023-07-20T15:12:42;2.30;;;1.10;;
6537;SDS011;3302;52.508;13.454;2023-07-20T15:15:08;1.90;;;1.10;;
6537;SDS011;3302;52.508;13.454;2023-07-20T15:17:36;1.37;;;1.10;;
6537;SDS011;3302;52.508;13.454;2023-07-20T15:20:03;3.73;;;1.60;;
6537;SDS011;3302;52.508;13.454;2023-07-20T15:22:30;2.97;;;1.20;;